createdAt,value
2019-04-10T00:01:12.156Z,12.20
2019-04-10T00:03:43.854Z,12.03
2019-04-10T00:06:18.172Z,12.73
2019-04-10T00:08:50.581Z,12.30
2019-04-10T00:11:21.184Z,12.07
2019-04-10T00:13:53.179Z,12.33
2019-04-10T00:16:24.524Z,12.17
2019-04-10T00:18:54.518Z,11.70
2019-04-10T00:21:25.204Z,12.33
2019-04-10T00:23:55.577Z,12.03
2019-04-10T00:26:25.785Z,10.20
2019-04-10T00:28:57.881Z,12.23
2019-04-10T00:31:29.804Z,12.27
2019-04-10T00:34:01.059Z,12.33
2019-04-10T00:36:33.151Z,11.63
2019-04-10T00:39:04.332Z,12.03
2019-04-10T00:41:34.439Z,12.23
2019-04-10T00:44:05.752Z,12.20
2019-04-10T00:46:36.813Z,10.40
2019-04-10T00:49:08.021Z,12.27
2019-04-10T00:51:39.557Z,12.17
2019-04-10T00:54:10.349Z,12.10
2019-04-10T00:56:41.807Z,12.30
2019-04-10T00:59:14.337Z,12.03
2019-04-10T01:01:45.712Z,12.23
2019-04-10T01:04:16.124Z,11.73
2019-04-10T01:06:47.076Z,11.57
2019-04-10T01:09:18.091Z,11.63
2019-04-10T01:11:49.832Z,10.27
2019-04-10T01:14:21.303Z,12.47
2019-04-10T01:16:52.032Z,12.30
2019-04-10T01:19:23.892Z,11.93
2019-04-10T01:21:54.890Z,11.63
2019-04-10T01:24:25.807Z,12.43
2019-04-10T01:26:59.301Z,10.07
2019-04-10T01:29:30.485Z,11.37
2019-04-10T01:32:03.728Z,12.27
2019-04-10T01:34:36.003Z,11.57
2019-04-10T01:37:08.220Z,11.57
2019-04-10T01:39:38.597Z,11.47
2019-04-10T01:42:09.866Z,11.37
2019-04-10T01:44:40.682Z,10.47
2019-04-10T01:47:11.401Z,11.57
2019-04-10T01:49:41.978Z,11.00
2019-04-10T01:52:12.996Z,9.80
2019-04-10T01:54:45.772Z,11.87
2019-04-10T01:57:16.733Z,11.33
2019-04-10T01:59:46.456Z,11.80
2019-04-10T02:02:17.400Z,11.50
2019-04-10T02:04:51.325Z,9.40
2019-04-10T02:07:22.982Z,11.50
2019-04-10T02:09:54.000Z,11.13
2019-04-10T02:12:26.244Z,9.43
2019-04-10T02:14:58.105Z,11.93
2019-04-10T02:17:29.329Z,9.23
2019-04-10T02:20:00.856Z,11.33
2019-04-10T02:22:31.105Z,9.33
2019-04-10T02:25:03.307Z,10.57
2019-04-10T02:27:35.364Z,10.77
2019-04-10T02:30:10.309Z,8.90
2019-04-10T02:32:43.248Z,11.00
2019-04-10T02:35:16.981Z,8.50
2019-04-10T02:37:52.169Z,10.73
2019-04-10T02:40:17.202Z,9.60
2019-04-10T02:42:49.310Z,11.20
2019-04-10T02:45:19.369Z,9.30
2019-04-10T02:47:50.899Z,10.67
2019-04-10T02:50:22.030Z,10.20
2019-04-10T02:52:52.781Z,9.13
2019-04-10T02:55:22.948Z,10.77
2019-04-10T02:57:56.378Z,9.83
2019-04-10T03:00:28.295Z,11.80
2019-04-10T03:02:59.267Z,10.50
2019-04-10T03:05:30.312Z,8.63
2019-04-10T03:08:01.968Z,11.07
2019-04-10T03:10:38.950Z,11.17
2019-04-10T03:13:06.350Z,8.63
2019-04-10T03:15:39.245Z,11.73
2019-04-10T03:18:14.689Z,8.97
2019-04-10T03:20:44.775Z,11.77
2019-04-10T03:23:15.650Z,9.03
2019-04-10T03:25:45.800Z,11.83
2019-04-10T03:28:17.455Z,9.77
2019-04-10T03:30:49.379Z,11.17
2019-04-10T03:33:26.801Z,10.10
2019-04-10T03:35:57.000Z,10.90
2019-04-10T03:38:28.379Z,9.77
2019-04-10T03:40:58.200Z,11.17
2019-04-10T03:43:29.912Z,10.10
2019-04-10T03:46:01.195Z,11.27
2019-04-10T03:48:33.353Z,9.53
2019-04-10T03:51:06.100Z,11.33
2019-04-10T03:53:36.955Z,9.97
2019-04-10T03:56:09.655Z,11.40
2019-04-10T03:58:41.675Z,10.03
2019-04-10T04:01:12.700Z,11.37
2019-04-10T04:03:42.738Z,9.73
2019-04-10T04:06:15.495Z,12.07
2019-04-10T04:08:46.238Z,10.07
2019-04-10T04:11:16.146Z,11.90
2019-04-10T04:13:47.972Z,9.93
2019-04-10T04:16:19.214Z,11.33
2019-04-10T04:18:49.228Z,9.60
2019-04-10T04:21:19.546Z,11.50
2019-04-10T04:23:53.342Z,9.53
2019-04-10T04:26:24.089Z,9.70
2019-04-10T04:28:56.300Z,10.03
2019-04-10T04:31:27.645Z,11.30
2019-04-10T04:33:57.778Z,9.17
2019-04-10T04:36:28.998Z,10.33
2019-04-10T04:39:00.002Z,8.50
2019-04-10T04:41:31.981Z,8.60
2019-04-10T04:44:04.009Z,10.53
2019-04-10T04:46:36.495Z,9.43
2019-04-10T04:49:07.038Z,10.67
2019-04-10T04:51:37.798Z,9.37
2019-04-10T04:54:08.762Z,10.67
2019-04-10T04:56:42.251Z,9.23
2019-04-10T04:59:14.186Z,10.03
2019-04-10T05:01:46.871Z,9.47
2019-04-10T05:04:19.579Z,10.57
2019-04-10T05:06:50.297Z,9.07
2019-04-10T05:09:30.072Z,8.77
2019-04-10T05:11:53.090Z,8.23
2019-04-10T05:14:23.818Z,9.20
2019-04-10T05:16:55.370Z,8.13
2019-04-10T05:19:27.446Z,10.00
2019-04-10T05:21:58.260Z,8.37
2019-04-10T05:24:30.059Z,9.40
2019-04-10T05:27:01.686Z,7.77
2019-04-10T05:29:34.579Z,10.13
2019-04-10T05:32:05.422Z,8.30
2019-04-10T05:34:36.548Z,8.87
2019-04-10T05:37:09.441Z,8.67
2019-04-10T05:39:46.138Z,8.20
2019-04-10T05:42:12.741Z,9.23
2019-04-10T05:44:45.274Z,8.03
2019-04-10T05:47:17.030Z,8.20
2019-04-10T05:49:47.222Z,9.97
2019-04-10T05:52:18.262Z,8.30
2019-04-10T05:54:50.034Z,8.70
2019-04-10T05:57:21.994Z,8.50
2019-04-10T05:59:52.806Z,9.50
2019-04-10T06:02:23.521Z,8.10
2019-04-10T06:04:56.264Z,9.53
2019-04-10T06:07:27.489Z,7.97
2019-04-10T06:10:04.839Z,9.20
2019-04-10T06:12:32.489Z,7.70
2019-04-10T06:15:02.477Z,9.43
2019-04-10T06:17:32.338Z,8.20
2019-04-10T06:20:04.978Z,7.80
2019-04-10T06:22:37.189Z,9.73
2019-04-10T06:25:10.618Z,8.00
2019-04-10T06:27:38.863Z,8.90
2019-04-10T06:30:12.344Z,7.60
2019-04-10T06:32:43.114Z,8.20
2019-04-10T06:35:15.613Z,7.87
2019-04-10T06:37:46.446Z,8.50
2019-04-10T06:40:20.569Z,7.63
2019-04-10T06:42:52.057Z,8.57
2019-04-10T06:45:21.786Z,8.37
2019-04-10T06:47:52.893Z,9.17
2019-04-10T06:50:23.236Z,7.67
2019-04-10T06:52:53.469Z,9.60
2019-04-10T06:55:24.626Z,6.83
2019-04-10T06:57:59.178Z,9.40
2019-04-10T07:00:30.646Z,8.50
2019-04-10T07:03:02.999Z,9.27
2019-04-10T07:05:41.386Z,8.60
2019-04-10T07:08:16.016Z,9.10
2019-04-10T07:10:50.019Z,8.07
2019-04-10T07:13:13.521Z,9.23
2019-04-10T07:15:46.819Z,7.83
2019-04-10T07:18:20.245Z,9.03
2019-04-10T07:20:51.538Z,8.27
2019-04-10T07:23:26.906Z,9.83
2019-04-10T07:25:54.984Z,8.33
2019-04-10T07:28:25.772Z,10.07
2019-04-10T07:30:59.390Z,7.70
2019-04-10T07:33:27.014Z,9.33
2019-04-10T07:36:04.179Z,7.87
2019-04-10T07:38:33.464Z,9.90
2019-04-10T07:41:11.146Z,7.87
2019-04-10T07:43:38.735Z,9.07
2019-04-10T07:46:08.954Z,8.03
2019-04-10T07:48:40.015Z,9.23
2019-04-10T07:51:11.311Z,8.43
2019-04-10T07:53:43.497Z,9.73
2019-04-10T07:56:17.657Z,7.83
2019-04-10T07:58:46.075Z,9.80
2019-04-10T08:01:16.353Z,8.63
2019-04-10T08:03:47.902Z,9.73
2019-04-10T08:06:17.946Z,8.70
2019-04-10T08:08:49.824Z,9.90
2019-04-10T08:11:20.541Z,9.13
2019-04-10T08:13:51.490Z,10.07
2019-04-10T08:16:21.654Z,9.20
2019-04-10T08:18:54.503Z,10.93
2019-04-10T08:21:25.175Z,10.70
2019-04-10T08:23:55.284Z,10.63
2019-04-10T08:26:26.037Z,10.03
2019-04-10T08:28:57.202Z,10.53
2019-04-10T08:31:28.713Z,10.10
2019-04-10T08:33:59.623Z,10.23
2019-04-10T08:36:31.768Z,11.63
2019-04-10T08:39:02.606Z,11.30
2019-04-10T08:41:33.481Z,11.10
2019-04-10T08:44:04.523Z,11.17
2019-04-10T08:46:37.709Z,11.33
2019-04-10T08:49:08.881Z,11.67
2019-04-10T08:51:39.861Z,12.20
2019-04-10T08:54:10.000Z,11.87
2019-04-10T08:56:41.296Z,11.83
2019-04-10T08:59:14.252Z,10.03
2019-04-10T09:01:45.153Z,12.60
2019-04-10T09:04:15.153Z,10.93
2019-04-10T09:06:45.805Z,10.00
2019-04-10T09:09:17.312Z,12.57
2019-04-10T09:11:49.451Z,10.20
2019-04-10T09:14:21.121Z,12.57
2019-04-10T09:16:53.034Z,11.73
2019-04-10T09:19:23.877Z,12.40
2019-04-10T09:21:55.805Z,10.83
2019-04-10T09:24:28.015Z,12.03
2019-04-10T09:26:58.924Z,12.57
2019-04-10T09:29:29.940Z,11.57
2019-04-10T09:32:02.169Z,13.13
2019-04-10T09:34:34.018Z,10.33
2019-04-10T09:37:04.314Z,12.83
2019-04-10T09:39:35.935Z,13.07
2019-04-10T09:42:08.604Z,13.33
2019-04-10T09:44:40.318Z,10.70
2019-04-10T09:47:10.617Z,13.60
2019-04-10T09:49:45.846Z,10.90
2019-04-10T09:52:14.620Z,12.90
2019-04-10T09:54:46.655Z,12.27
2019-04-10T09:57:17.827Z,13.70
2019-04-10T09:59:48.848Z,11.33
2019-04-10T10:02:19.654Z,13.40
2019-04-10T10:04:50.434Z,11.37
2019-04-10T10:07:22.572Z,13.90
2019-04-10T10:09:52.381Z,12.23
2019-04-10T10:12:24.087Z,13.87
2019-04-10T10:14:54.292Z,11.53
2019-04-10T10:17:24.437Z,13.07
2019-04-10T10:19:57.426Z,11.90
2019-04-10T10:22:27.816Z,13.93
2019-04-10T10:25:00.341Z,11.10
2019-04-10T10:27:32.249Z,13.50
2019-04-10T10:30:02.673Z,13.43
2019-04-10T10:32:33.099Z,12.70
2019-04-10T10:35:05.002Z,13.20
2019-04-10T10:37:36.744Z,11.87
2019-04-10T10:40:10.168Z,14.20
2019-04-10T10:42:41.587Z,12.03
2019-04-10T10:45:12.459Z,13.10
2019-04-10T10:47:42.931Z,11.27
2019-04-10T10:50:15.182Z,13.13
2019-04-10T10:52:47.940Z,11.40
2019-04-10T10:55:17.916Z,13.30
2019-04-10T10:57:49.100Z,11.93
2019-04-10T11:00:23.001Z,14.00
2019-04-10T11:02:54.052Z,11.67
2019-04-10T11:05:25.246Z,13.80
2019-04-10T11:07:59.845Z,12.13
2019-04-10T11:10:33.710Z,14.00
2019-04-10T11:13:04.975Z,12.23
2019-04-10T11:15:39.062Z,13.40
2019-04-10T11:18:08.757Z,11.87
2019-04-10T11:20:39.471Z,13.77
2019-04-10T11:23:09.915Z,12.27
2019-04-10T11:25:41.037Z,14.20
2019-04-10T11:28:12.537Z,11.43
2019-04-10T11:30:44.929Z,14.13
2019-04-10T11:33:17.577Z,11.73
2019-04-10T11:35:47.754Z,15.10
2019-04-10T11:38:19.209Z,12.27
2019-04-10T11:40:49.810Z,13.80
2019-04-10T11:43:21.413Z,11.83
2019-04-10T11:45:55.721Z,13.50
2019-04-10T11:48:29.139Z,11.40
2019-04-10T11:51:00.640Z,13.83
2019-04-10T11:53:36.249Z,11.50
2019-04-10T11:56:05.774Z,14.10
2019-04-10T11:58:43.089Z,12.77
2019-04-10T12:01:08.870Z,13.23
2019-04-10T12:03:44.192Z,12.20
2019-04-10T12:06:13.671Z,14.50
2019-04-10T12:09:08.301Z,11.47
2019-04-10T12:11:20.644Z,13.73
2019-04-10T12:13:54.597Z,12.37
2019-04-10T12:16:25.955Z,12.10
2019-04-10T12:18:56.395Z,14.80
2019-04-10T12:21:27.474Z,12.03
2019-04-10T12:23:59.237Z,14.40
2019-04-10T12:26:28.929Z,11.73
2019-04-10T12:29:00.379Z,14.60
2019-04-10T12:31:30.661Z,12.93
2019-04-10T12:34:06.638Z,13.87
2019-04-10T12:36:36.906Z,12.73
2019-04-10T12:39:10.265Z,14.43
2019-04-10T12:41:40.078Z,11.67
2019-04-10T12:44:10.143Z,12.97
2019-04-10T12:46:43.597Z,11.27
2019-04-10T12:49:15.057Z,13.47
2019-04-10T12:51:46.334Z,10.63
2019-04-10T12:54:17.500Z,12.57
2019-04-10T12:56:48.537Z,10.90
2019-04-10T12:59:19.447Z,13.73
2019-04-10T13:01:53.961Z,11.03
2019-04-10T13:04:24.705Z,13.20
2019-04-10T13:06:56.986Z,11.70
2019-04-10T13:09:29.966Z,11.30
2019-04-10T13:12:00.686Z,11.20
2019-04-10T13:14:30.952Z,11.60
2019-04-10T13:17:02.907Z,10.90
2019-04-10T13:19:34.170Z,12.27
2019-04-10T13:22:05.148Z,12.47
2019-04-10T13:24:35.821Z,10.87
2019-04-10T13:27:08.408Z,11.70
2019-04-10T13:29:41.265Z,11.57
2019-04-10T13:32:11.737Z,12.57
2019-04-10T13:34:43.785Z,10.70
2019-04-10T13:37:13.704Z,11.90
2019-04-10T13:39:43.490Z,9.40
2019-04-10T13:42:12.862Z,11.13
2019-04-10T13:44:44.394Z,10.00
2019-04-10T13:47:15.396Z,11.30
2019-04-10T13:49:46.336Z,10.57
2019-04-10T13:52:18.265Z,10.77
2019-04-10T13:54:49.080Z,9.43
2019-04-10T13:57:20.177Z,10.90
2019-04-10T13:59:51.217Z,9.90
2019-04-10T14:02:33.948Z,11.67
2019-04-10T14:05:08.363Z,10.20
2019-04-10T14:07:42.213Z,11.27
2019-04-10T14:10:16.806Z,9.53
2019-04-10T14:12:47.588Z,10.60
2019-04-10T14:15:20.237Z,8.53
2019-04-10T14:17:54.662Z,10.07
2019-04-10T14:20:25.474Z,9.73
2019-04-10T14:22:58.101Z,10.53
2019-04-10T14:25:29.985Z,8.80
2019-04-10T14:28:01.106Z,11.03
2019-04-10T14:30:37.683Z,9.00
2019-04-10T14:33:07.806Z,10.27
2019-04-10T14:35:39.048Z,10.27
2019-04-10T14:38:10.676Z,9.93
2019-04-10T14:40:41.909Z,10.13
2019-04-10T14:43:12.424Z,8.70
2019-04-10T14:45:45.814Z,9.67
2019-04-10T14:48:16.241Z,10.67
2019-04-10T14:50:47.100Z,10.13
2019-04-10T14:53:17.186Z,9.57
2019-04-10T14:55:47.972Z,9.67
2019-04-10T14:58:22.710Z,8.33
2019-04-10T15:00:52.989Z,9.27
2019-04-10T15:03:22.863Z,8.27
2019-04-10T15:05:55.331Z,10.20
2019-04-10T15:08:26.030Z,8.10
2019-04-10T15:10:58.606Z,9.47
2019-04-10T15:13:29.585Z,10.00
2019-04-10T15:16:02.977Z,10.87
2019-04-10T15:18:34.998Z,10.43
2019-04-10T15:21:04.914Z,8.27
2019-04-10T15:23:35.775Z,8.50
2019-04-10T15:26:06.080Z,9.80
2019-04-10T15:28:37.332Z,9.80
2019-04-10T15:31:08.859Z,9.10
2019-04-10T15:33:39.439Z,9.67
2019-04-10T15:36:11.509Z,7.37
2019-04-10T15:38:42.201Z,9.53
2019-04-10T15:41:12.680Z,9.37
2019-04-10T15:43:43.504Z,9.50
2019-04-10T15:46:13.440Z,7.83
2019-04-10T15:48:44.381Z,9.57
2019-04-10T15:51:16.159Z,9.63
2019-04-10T15:53:47.385Z,9.00
2019-04-10T15:56:19.300Z,7.27
2019-04-10T15:58:52.233Z,8.57
2019-04-10T16:01:27.080Z,9.07
2019-04-10T16:03:58.958Z,9.43
2019-04-10T16:06:29.369Z,8.83
2019-04-10T16:09:00.901Z,9.20
2019-04-10T16:11:36.374Z,9.83
2019-04-10T16:14:20.012Z,9.10
2019-04-10T16:17:01.095Z,8.80
2019-04-10T16:19:46.998Z,9.00
2019-04-10T16:22:19.208Z,8.60
2019-04-10T16:24:49.988Z,9.17
2019-04-10T16:27:20.167Z,7.50
2019-04-10T16:29:51.072Z,8.70
2019-04-10T16:32:23.001Z,8.83
2019-04-10T16:34:54.645Z,8.87
2019-04-10T16:37:27.886Z,8.90
2019-04-10T16:40:03.615Z,8.50
2019-04-10T16:42:30.896Z,8.90
2019-04-10T16:45:01.787Z,9.10
2019-04-10T16:47:32.852Z,8.50
2019-04-10T16:50:05.545Z,8.70
2019-04-10T16:52:38.977Z,8.53
2019-04-10T16:55:10.304Z,8.77
2019-04-10T16:57:40.203Z,7.17
2019-04-10T17:00:16.432Z,8.33
2019-04-10T17:02:46.773Z,8.20
2019-04-10T17:05:18.644Z,7.37
2019-04-10T17:07:49.954Z,8.20
2019-04-10T17:10:24.507Z,8.50
2019-04-10T17:12:52.345Z,8.17
2019-04-10T17:15:26.225Z,8.83
2019-04-10T17:17:56.926Z,7.30
2019-04-10T17:20:28.803Z,8.47
2019-04-10T17:23:00.402Z,7.10
2019-04-10T17:25:31.201Z,8.30
2019-04-10T17:28:01.744Z,7.47
2019-04-10T17:30:31.805Z,8.53
2019-04-10T17:33:02.833Z,6.87
2019-04-10T17:35:34.233Z,8.60
2019-04-10T17:38:05.113Z,7.27
2019-04-10T17:40:43.432Z,8.40
2019-04-10T17:43:08.672Z,7.30
2019-04-10T17:45:42.667Z,8.30
2019-04-10T17:48:13.910Z,8.60
2019-04-10T17:50:45.685Z,8.13
2019-04-10T17:53:17.135Z,8.73
2019-04-10T17:55:49.680Z,7.07
2019-04-10T17:58:21.187Z,7.37
2019-04-10T18:00:57.790Z,8.03
2019-04-10T18:03:44.483Z,8.03
2019-04-10T18:06:04.937Z,6.87
2019-04-10T18:08:34.752Z,7.97
2019-04-10T18:11:07.720Z,8.17
2019-04-10T18:13:41.134Z,6.83
2019-04-10T18:16:12.670Z,8.20
2019-04-10T18:18:44.251Z,7.53
2019-04-10T18:21:16.839Z,8.40
2019-04-10T18:23:47.716Z,6.37
2019-04-10T18:26:21.007Z,8.10
2019-04-10T18:28:52.091Z,6.13
2019-04-10T18:31:25.175Z,7.90
2019-04-10T18:33:56.114Z,8.07
2019-04-10T18:36:25.986Z,6.63
2019-04-10T18:38:55.779Z,7.50
2019-04-10T18:41:25.533Z,6.90
2019-04-10T18:43:56.357Z,8.23
2019-04-10T18:46:29.159Z,6.33
2019-04-10T18:48:59.896Z,7.20
2019-04-10T18:51:32.012Z,7.50
2019-04-10T18:54:05.884Z,6.67
2019-04-10T18:56:36.022Z,7.10
2019-04-10T18:59:20.709Z,6.67
2019-04-10T19:01:55.728Z,6.93
2019-04-10T19:04:28.554Z,7.00
2019-04-10T19:07:00.818Z,6.97
2019-04-10T19:09:32.798Z,7.13
2019-04-10T19:12:02.986Z,6.70
2019-04-10T19:14:36.520Z,7.13
2019-04-10T19:17:09.121Z,7.80
2019-04-10T19:19:43.790Z,6.40
2019-04-10T19:22:15.829Z,7.57
2019-04-10T19:24:48.778Z,6.00
2019-04-10T19:27:22.238Z,6.93
2019-04-10T19:29:53.201Z,5.97
2019-04-10T19:32:26.619Z,6.60
2019-04-10T19:34:57.005Z,6.17
2019-04-10T19:37:28.455Z,6.47
2019-04-10T19:39:58.767Z,6.50
2019-04-10T19:42:31.623Z,5.80
2019-04-10T19:45:03.729Z,6.40
2019-04-10T19:47:34.721Z,5.07
2019-04-10T19:50:05.872Z,6.97
2019-04-10T19:52:36.204Z,6.60
2019-04-10T19:55:07.947Z,5.37
2019-04-10T19:57:41.517Z,6.03
2019-04-10T20:00:15.173Z,6.30
2019-04-10T20:02:46.906Z,6.17
2019-04-10T20:05:17.959Z,6.60
2019-04-10T20:07:49.166Z,6.30
2019-04-10T20:10:21.356Z,6.37
2019-04-10T20:12:55.035Z,6.30
2019-04-10T20:15:26.627Z,5.40
2019-04-10T20:18:00.122Z,6.67
2019-04-10T20:20:31.110Z,6.23
2019-04-10T20:23:02.536Z,5.97
2019-04-10T20:25:32.919Z,6.00
2019-04-10T20:28:02.727Z,5.77
2019-04-10T20:30:34.866Z,5.97
2019-04-10T20:33:06.417Z,6.03
2019-04-10T20:35:37.544Z,5.80
2019-04-10T20:38:09.356Z,5.10
2019-04-10T20:40:40.177Z,6.00
2019-04-10T20:43:11.302Z,5.43
2019-04-10T20:45:40.661Z,5.43
2019-04-10T20:48:12.411Z,5.60
2019-04-10T20:50:43.895Z,6.70
2019-04-10T20:53:13.732Z,5.37
2019-04-10T20:55:44.597Z,6.27
2019-04-10T20:58:17.669Z,6.23
2019-04-10T21:00:51.317Z,5.53
2019-04-10T21:03:23.126Z,5.87
2019-04-10T21:05:53.847Z,5.83
2019-04-10T21:08:24.105Z,5.80
2019-04-10T21:10:55.235Z,5.40
2019-04-10T21:13:28.082Z,5.20
2019-04-10T21:15:58.467Z,6.20
2019-04-10T21:18:29.253Z,5.93
2019-04-10T21:21:01.590Z,5.00
2019-04-10T21:23:31.462Z,5.73
2019-04-10T21:26:02.109Z,5.60
2019-04-10T21:28:32.821Z,6.13
2019-04-10T21:31:13.797Z,5.80
2019-04-10T21:33:46.986Z,5.47
2019-04-10T21:36:18.515Z,6.17
2019-04-10T21:38:52.532Z,4.87
2019-04-10T21:41:24.117Z,5.70
2019-04-10T21:43:56.249Z,4.70
2019-04-10T21:46:28.463Z,5.33
2019-04-10T21:48:59.341Z,5.60
2019-04-10T21:51:30.623Z,4.73
2019-04-10T21:54:02.211Z,5.23
2019-04-10T21:56:31.513Z,4.57
2019-04-10T21:59:01.670Z,5.60
2019-04-10T22:01:34.660Z,4.57
2019-04-10T22:04:06.307Z,5.50
2019-04-10T22:06:39.799Z,5.00
2019-04-10T22:09:14.616Z,5.93
2019-04-10T22:11:49.727Z,5.47
2019-04-10T22:14:21.466Z,4.57
2019-04-10T22:16:52.539Z,5.70
2019-04-10T22:19:23.922Z,4.70
2019-04-10T22:21:55.803Z,5.87
2019-04-10T22:24:27.711Z,4.70
2019-04-10T22:26:58.836Z,5.80
2019-04-10T22:29:32.643Z,5.10
2019-04-10T22:32:04.147Z,6.30
2019-04-10T22:34:34.821Z,5.17
2019-04-10T22:37:06.333Z,5.87
2019-04-10T22:39:36.561Z,5.13
2019-04-10T22:42:07.536Z,6.07
2019-04-10T22:44:43.847Z,5.37
2019-04-10T22:47:11.288Z,6.03
2019-04-10T22:49:42.767Z,4.60
2019-04-10T22:52:13.861Z,5.70
2019-04-10T22:54:46.785Z,5.10
2019-04-10T22:57:19.183Z,5.77
2019-04-10T22:59:49.738Z,5.00
2019-04-10T23:02:19.835Z,5.70
2019-04-10T23:04:51.286Z,4.70
2019-04-10T23:07:21.939Z,5.70
2019-04-10T23:09:54.893Z,4.33
2019-04-10T23:12:27.353Z,5.93
2019-04-10T23:14:58.755Z,5.43
2019-04-10T23:17:28.997Z,6.33
2019-04-10T23:20:00.699Z,4.80
2019-04-10T23:22:31.434Z,5.83
2019-04-10T23:25:02.811Z,5.40
2019-04-10T23:27:33.945Z,6.10
2019-04-10T23:30:08.643Z,5.17
2019-04-10T23:32:41.612Z,5.97
2019-04-10T23:35:11.733Z,4.90
2019-04-10T23:37:42.385Z,5.80
2019-04-10T23:40:12.845Z,5.17
2019-04-10T23:42:42.736Z,5.50
2019-04-10T23:45:15.555Z,5.37
2019-04-10T23:47:46.500Z,5.60
2019-04-10T23:50:18.561Z,5.13
2019-04-10T23:52:49.796Z,5.60
2019-04-10T23:55:20.173Z,5.47
2019-04-10T23:57:51.694Z,4.40
